Time;durP1;ratioP1;P1;durP2;ratioP2;P2;SDS_P1;SDS_P2;PMS_P1;PMS_P2;Temp;Humidity;BMP_temperature;BMP_pressure;BME280_temperature;BME280_humidity;BME280_pressure;Samples;Min_cycle;Max_cycle;Signal;HPM_P1;HPM_P2
2024/04/08 00:03:37;;;;;;;3.90;1.88;;;17.40;73.90;;;;;;10413645;28;21613;-63
2024/04/08 00:08:40;;;;;;;5.68;2.15;;;17.40;74.20;;;;;;10415321;28;20230;-63
2024/04/08 00:13:42;;;;;;;3.53;2.05;;;17.30;74.90;;;;;;10412960;28;21679;-63
2024/04/08 00:18:46;;;;;;;3.63;1.92;;;17.30;75.60;;;;;;10413587;28;20292;-63
2024/04/08 00:23:49;;;;;;;4.60;2.10;;;17.20;77.00;;;;;;10413212;28;20229;-63
2024/04/08 00:28:52;;;;;;;5.18;2.05;;;17.20;76.30;;;;;;10412958;28;20292;-62
2024/04/08 00:33:56;;;;;;;4.93;2.20;;;17.10;77.10;;;;;;10413438;28;20307;-64
2024/04/08 00:38:59;;;;;;;5.07;2.80;;;17.00;77.10;;;;;;10413330;28;20304;-63
2024/04/08 00:44:02;;;;;;;4.13;2.28;;;17.00;76.70;;;;;;10412518;28;20223;-63
2024/04/08 00:49:06;;;;;;;4.68;2.28;;;16.90;77.90;;;;;;10412375;28;20687;-63
2024/04/08 00:54:08;;;;;;;3.25;2.22;;;16.90;78.70;;;;;;10412197;28;20235;-62
2024/04/08 00:59:14;;;;;;;5.18;2.33;;;16.90;78.70;;;;;;10411895;28;20215;-63
2024/04/08 01:04:18;;;;;;;4.25;2.15;;;16.80;78.00;;;;;;10412553;28;20287;-63
2024/04/08 01:09:20;;;;;;;5.82;1.88;;;16.80;78.80;;;;;;10411959;28;20218;-63
2024/04/08 01:14:23;;;;;;;4.35;2.15;;;16.80;78.60;;;;;;10412245;28;20239;-63
2024/04/08 01:19:27;;;;;;;5.85;2.08;;;16.70;79.20;;;;;;10410625;28;20211;-64
2024/04/08 01:24:32;;;;;;;4.78;1.90;;;16.70;78.80;;;;;;10410695;28;20231;-63
2024/04/08 01:29:35;;;;;;;5.93;2.10;;;16.70;80.10;;;;;;10410880;28;20287;-63
2024/04/08 01:34:38;;;;;;;4.82;2.25;;;16.70;79.50;;;;;;10411268;28;20230;-63
2024/04/08 01:39:42;;;;;;;5.97;2.72;;;16.60;80.70;;;;;;10410458;28;20237;-64
2024/04/08 01:44:45;;;;;;;4.53;2.30;;;16.60;82.50;;;;;;10408688;28;20303;-63
2024/04/08 01:49:48;;;;;;;3.97;2.00;;;16.60;81.80;;;;;;10410116;28;20203;-63
2024/04/08 01:54:52;;;;;;;5.70;2.50;;;16.60;82.00;;;;;;10408682;28;20312;-63
2024/04/08 01:59:54;;;;;;;4.15;2.10;;;16.60;82.10;;;;;;10408884;28;20279;-63
2024/04/08 02:04:57;;;;;;;4.25;2.10;;;16.50;82.30;;;;;;10409519;28;21669;-63
2024/04/08 02:10:01;;;;;;;4.30;2.50;;;16.50;82.20;;;;;;10408562;28;20276;-62
2024/04/08 02:15:04;;;;;;;6.72;3.10;;;16.50;82.40;;;;;;10408451;28;20242;-63
2024/04/08 02:20:08;;;;;;;5.03;3.03;;;16.50;81.40;;;;;;10407573;28;20289;-63
2024/04/08 02:25:12;;;;;;;5.88;2.88;;;16.50;82.90;;;;;;10408108;28;22261;-62
2024/04/08 02:30:15;;;;;;;4.65;2.60;;;16.50;82.70;;;;;;10408855;28;20211;-63
2024/04/08 02:35:17;;;;;;;5.22;3.13;;;16.50;83.30;;;;;;10406975;28;20280;-62
2024/04/08 02:40:21;;;;;;;5.22;2.90;;;16.50;82.30;;;;;;10407826;28;21886;-64
2024/04/08 02:45:24;;;;;;;8.52;2.67;;;16.40;83.30;;;;;;10408150;28;20245;-62
2024/04/08 02:50:27;;;;;;;5.60;2.58;;;16.40;82.40;;;;;;10405672;28;20276;-63
2024/04/08 02:55:30;;;;;;;4.38;2.70;;;16.40;83.40;;;;;;10407169;28;20288;-63
2024/04/08 03:00:38;;;;;;;6.03;2.38;;;16.40;83.20;;;;;;10407390;28;21466;-63
2024/04/08 03:05:40;;;;;;;3.95;2.40;;;16.30;82.70;;;;;;10405480;28;20676;-63
2024/04/08 03:10:44;;;;;;;2.67;2.42;;;16.30;83.50;;;;;;10406942;28;20211;-63
2024/04/08 03:15:54;;;;;;;8.98;3.08;;;16.20;83.20;;;;;;10406200;28;21900;-63
2024/04/08 03:20:57;;;;;;;5.53;2.60;;;16.30;82.90;;;;;;10405598;28;20211;-62
2024/04/08 03:26:02;;;;;;;4.60;3.05;;;16.20;83.00;;;;;;10407276;28;20235;-64
2024/04/08 03:31:06;;;;;;;5.10;2.80;;;16.10;82.90;;;;;;10407557;28;20214;-62
2024/04/08 03:36:09;;;;;;;6.18;4.00;;;16.10;82.70;;;;;;10408061;28;20656;-61
2024/04/08 03:41:13;;;;;;;6.07;4.35;;;16.10;84.70;;;;;;10407377;28;21551;-62
2024/04/08 03:46:16;;;;;;;7.28;4.30;;;16.00;83.30;;;;;;10406048;28;20263;-63
2024/04/08 03:51:19;;;;;;;6.60;4.55;;;16.00;83.30;;;;;;10406097;28;20755;-63
2024/04/08 03:56:23;;;;;;;7.68;5.57;;;16.00;82.90;;;;;;10404300;28;20363;-62
2024/04/08 04:01:25;;;;;;;8.23;5.55;;;16.00;83.70;;;;;;10405931;28;20214;-63
2024/04/08 04:06:28;;;;;;;9.88;5.30;;;16.00;83.50;;;;;;10407620;28;21764;-63
2024/04/08 04:11:32;;;;;;;9.38;5.72;;;16.00;84.00;;;;;;10406566;28;20210;-64
2024/04/08 04:16:35;;;;;;;9.40;6.05;;;16.00;84.10;;;;;;10409614;28;20299;-63
2024/04/08 04:21:37;;;;;;;7.95;6.07;;;16.00;83.70;;;;;;10415600;28;20550;-63
2024/04/08 04:26:41;;;;;;;9.80;6.47;;;15.90;83.60;;;;;;10417204;28;21435;-63
2024/04/08 04:31:45;;;;;;;8.73;6.93;;;15.90;84.00;;;;;;10418213;28;20303;-63
2024/04/08 04:36:47;;;;;;;9.27;6.22;;;15.90;84.60;;;;;;10416678;28;20203;-63
2024/04/08 04:41:52;;;;;;;10.80;7.15;;;15.80;83.90;;;;;;10416420;28;20207;-63
2024/04/08 04:46:55;;;;;;;8.93;7.30;;;15.80;84.90;;;;;;10413716;28;20913;-63
2024/04/08 04:51:57;;;;;;;11.45;7.82;;;15.80;84.10;;;;;;10413342;28;20284;-63
2024/04/08 04:57:02;;;;;;;11.70;8.25;;;15.70;84.60;;;;;;10414584;28;20219;-63
2024/04/08 05:02:05;;;;;;;11.93;8.10;;;15.70;85.40;;;;;;10413653;28;20252;-63
2024/04/08 05:07:07;;;;;;;11.77;7.40;;;15.70;85.40;;;;;;10413533;28;20203;-64
2024/04/08 05:12:11;;;;;;;10.65;7.43;;;15.70;84.80;;;;;;10413983;28;22268;-63
2024/04/08 05:17:14;;;;;;;10.00;6.80;;;15.70;86.00;;;;;;10416562;28;20236;-63
2024/04/08 05:22:17;;;;;;;9.05;6.78;;;15.70;86.10;;;;;;10413199;28;20886;-63
2024/04/08 05:27:21;;;;;;;17.30;9.35;;;15.70;87.10;;;;;;10414091;28;20199;-63
2024/04/08 05:32:24;;;;;;;9.20;6.63;;;15.70;86.90;;;;;;10411792;28;22043;-63
2024/04/08 05:37:26;;;;;;;11.90;5.35;;;15.70;86.30;;;;;;10411168;28;20214;-63
2024/04/08 05:42:30;;;;;;;10.68;6.35;;;15.80;85.70;;;;;;10410518;28;20226;-62
2024/04/08 05:47:33;;;;;;;10.32;5.47;;;15.70;86.20;;;;;;10410490;28;20215;-64
2024/04/08 05:52:35;;;;;;;6.90;5.18;;;15.70;87.20;;;;;;10412215;28;20675;-63
2024/04/08 05:57:39;;;;;;;7.63;4.97;;;15.80;88.10;;;;;;10410687;28;20215;-63
2024/04/08 06:02:43;;;;;;;7.43;4.70;;;15.80;87.60;;;;;;10410011;28;20227;-63
2024/04/08 06:07:48;;;;;;;7.70;6.05;;;15.80;87.90;;;;;;10409676;28;20210;-64
2024/04/08 06:12:52;;;;;;;6.78;5.40;;;15.90;87.50;;;;;;10410947;28;20313;-68
2024/04/08 06:17:55;;;;;;;8.77;4.57;;;15.90;87.00;;;;;;10410121;28;21450;-64
2024/04/08 06:22:57;;;;;;;7.68;4.90;;;16.00;87.30;;;;;;10411045;28;20272;-66
2024/04/08 06:28:01;;;;;;;7.00;4.70;;;16.10;87.50;;;;;;10410578;28;20299;-65
2024/04/08 06:33:04;;;;;;;6.45;4.75;;;16.20;87.50;;;;;;10410116;28;20226;-66
2024/04/08 06:38:06;;;;;;;7.38;4.10;;;16.20;87.00;;;;;;10407729;28;20244;-65
2024/04/08 06:43:10;;;;;;;4.88;3.50;;;16.30;87.80;;;;;;10410535;28;20227;-66
2024/04/08 06:48:13;;;;;;;6.53;3.92;;;16.40;87.70;;;;;;10409879;28;20229;-67
2024/04/08 06:53:15;;;;;;;7.25;4.00;;;16.50;87.40;;;;;;10409997;28;20234;-67
2024/04/08 06:58:20;;;;;;;5.38;3.78;;;16.60;87.00;;;;;;10410213;28;20207;-67
2024/04/08 07:03:22;;;;;;;4.25;3.47;;;16.60;86.30;;;;;;10409415;28;20307;-67
2024/04/08 07:08:25;;;;;;;7.20;3.40;;;16.70;86.80;;;;;;10409860;28;20214;-66
2024/04/08 07:13:29;;;;;;;4.28;3.20;;;16.90;86.10;;;;;;10409301;28;20257;-66
2024/04/08 07:18:32;;;;;;;4.03;2.75;;;17.00;86.00;;;;;;10409272;28;20207;-66
2024/04/08 07:23:34;;;;;;;6.20;2.38;;;17.10;85.90;;;;;;10409460;28;21428;-66
2024/04/08 07:28:38;;;;;;;4.13;2.17;;;17.10;85.90;;;;;;10410327;28;20211;-65
2024/04/08 07:33:41;;;;;;;6.32;2.42;;;17.20;86.50;;;;;;10408489;28;20287;-66
2024/04/08 07:38:43;;;;;;;3.80;2.22;;;17.20;85.70;;;;;;10409746;28;21348;-66
2024/04/08 07:43:47;;;;;;;5.15;2.20;;;17.30;85.80;;;;;;10409546;28;20328;-66
2024/04/08 07:48:50;;;;;;;6.10;1.90;;;17.40;85.70;;;;;;10409705;28;20202;-66
2024/04/08 07:53:52;;;;;;;4.45;2.00;;;17.50;85.80;;;;;;10413257;28;20234;-66
2024/04/08 07:58:56;;;;;;;4.43;2.20;;;17.50;85.40;;;;;;10415739;28;20207;-66
2024/04/08 08:03:59;;;;;;;3.95;1.90;;;17.60;85.40;;;;;;10412321;28;20230;-66
2024/04/08 08:09:01;;;;;;;5.72;2.30;;;17.70;85.50;;;;;;10411679;28;20276;-68
2024/04/08 08:14:05;;;;;;;3.10;1.50;;;17.80;85.40;;;;;;10413782;28;21647;-67
2024/04/08 08:19:08;;;;;;;5.43;2.40;;;17.90;85.30;;;;;;10412936;28;20207;-66
2024/04/08 08:24:10;;;;;;;3.60;2.13;;;18.00;85.30;;;;;;10413040;28;20231;-65
2024/04/08 08:29:14;;;;;;;3.72;1.77;;;18.00;85.20;;;;;;10413455;28;20375;-66
2024/04/08 08:34:17;;;;;;;5.22;2.45;;;18.10;85.20;;;;;;10411786;28;20242;-66
2024/04/08 08:39:20;;;;;;;5.70;2.83;;;18.20;85.20;;;;;;10410150;28;20215;-65
2024/04/08 08:44:29;;;;;;;7.65;2.72;;;18.30;85.30;;;;;;10412253;28;20261;-66
2024/04/08 08:49:32;;;;;;;8.35;3.17;;;18.30;85.20;;;;;;10418310;28;20247;-66
2024/04/08 08:54:34;;;;;;;4.95;2.42;;;18.40;85.00;;;;;;10411244;28;20296;-67
2024/04/08 08:59:39;;;;;;;7.13;4.20;;;18.50;85.20;;;;;;10410251;28;20228;-67
2024/04/08 09:04:42;;;;;;;6.70;3.65;;;18.60;85.00;;;;;;10411983;28;20257;-67
2024/04/08 09:09:53;;;;;;;8.50;3.65;;;18.70;85.30;;;;;;10410974;28;21549;-66
2024/04/08 09:14:57;;;;;;;6.63;3.50;;;18.80;85.00;;;;;;10411684;28;21015;-66
2024/04/08 09:20:03;;;;;;;7.65;4.47;;;18.80;84.80;;;;;;10412050;28;21483;-66
2024/04/08 09:25:12;;;;;;;7.68;4.72;;;18.90;84.90;;;;;;10410968;28;20253;-65
2024/04/08 09:30:16;;;;;;;8.63;5.40;;;19.00;84.90;;;;;;10410121;28;20276;-66
2024/04/08 09:35:19;;;;;;;8.10;5.30;;;19.00;84.60;;;;;;10410375;28;20226;-66
2024/04/08 09:40:24;;;;;;;6.97;4.70;;;19.10;84.60;;;;;;10410647;28;20202;-66
2024/04/08 09:45:28;;;;;;;10.13;4.63;;;19.20;84.60;;;;;;10411815;28;20700;-66
2024/04/08 09:50:30;;;;;;;8.27;4.57;;;19.30;84.50;;;;;;10410937;28;20207;-66
2024/04/08 09:55:38;;;;;;;11.48;5.05;;;19.40;84.50;;;;;;10408696;28;21799;-66
2024/04/08 10:00:46;;;;;;;8.90;4.80;;;19.50;84.20;;;;;;10409756;28;21756;-66
2024/04/08 10:05:49;;;;;;;8.27;4.32;;;19.60;84.30;;;;;;10407885;28;20300;-67
2024/04/08 10:10:51;;;;;;;7.32;5.15;;;19.60;84.30;;;;;;10409333;28;20818;-67
2024/04/08 10:16:08;;;;;;;9.77;5.40;;;19.70;84.20;;;;;;10407995;28;20307;-67
2024/04/08 10:21:11;;;;;;;8.00;5.45;;;19.90;84.40;;;;;;10408533;28;20288;-68
2024/04/08 10:26:15;;;;;;;6.43;5.05;;;20.00;84.20;;;;;;10407374;28;20364;-66
2024/04/08 10:31:22;;;;;;;7.45;5.00;;;20.10;84.10;;;;;;10407199;28;20232;-68
2024/04/08 10:36:24;;;;;;;7.30;3.88;;;20.20;83.80;;;;;;10405713;28;20231;-65
2024/04/08 10:41:27;;;;;;;10.32;5.43;;;20.30;83.90;;;;;;10406282;28;20203;-67
2024/04/08 10:46:31;;;;;;;9.18;4.70;;;20.50;83.80;;;;;;10410156;28;20276;-63
2024/04/08 10:51:34;;;;;;;6.03;4.40;;;20.60;83.70;;;;;;10409717;28;20264;-64
2024/04/08 10:56:36;;;;;;;8.48;4.25;;;20.60;83.40;;;;;;10408025;28;20765;-68
2024/04/08 11:01:40;;;;;;;7.82;4.80;;;20.70;83.50;;;;;;10411518;28;20299;-62
2024/04/08 11:06:43;;;;;;;5.55;4.78;;;20.90;83.20;;;;;;10406547;28;21396;-63
2024/04/08 11:11:45;;;;;;;7.93;4.82;;;20.90;82.80;;;;;;10407370;28;20280;-64
2024/04/08 11:16:49;;;;;;;6.70;3.90;;;21.00;82.70;;;;;;10408021;28;20214;-64
2024/04/08 11:21:52;;;;;;;11.65;4.57;;;21.10;82.80;;;;;;10413077;28;20206;-65
2024/04/08 11:26:56;;;;;;;6.70;4.15;;;21.30;82.30;;;;;;10411952;28;21084;-66
2024/04/08 11:32:00;;;;;;;8.45;3.55;;;21.40;82.20;;;;;;10418525;28;20226;-66
2024/04/08 11:37:03;;;;;;;9.45;4.22;;;21.40;82.00;;;;;;10415955;28;20223;-67
2024/04/08 11:42:06;;;;;;;10.30;3.90;;;21.50;81.30;;;;;;10411880;28;20862;-64
2024/04/08 11:47:13;;;;;;;5.43;3.63;;;21.70;81.70;;;;;;10413184;28;20207;-66
2024/04/08 11:52:15;;;;;;;6.88;4.10;;;21.80;81.50;;;;;;10416571;28;20223;-65
2024/04/08 11:57:18;;;;;;;6.88;3.90;;;21.80;81.00;;;;;;10416867;28;20226;-65
2024/04/08 12:02:23;;;;;;;8.15;4.28;;;21.90;81.30;;;;;;10414759;28;20222;-65
2024/04/08 12:07:26;;;;;;;7.00;4.07;;;22.10;81.10;;;;;;10417015;28;20283;-65
2024/04/08 12:12:29;;;;;;;9.20;4.65;;;22.40;80.60;;;;;;10411727;28;21051;-67
2024/04/08 12:17:33;;;;;;;7.80;3.90;;;22.70;80.90;;;;;;10414353;28;20227;-65
2024/04/08 12:22:35;;;;;;;5.68;3.60;;;22.80;81.00;;;;;;10414201;28;20771;-65
2024/04/08 12:27:38;;;;;;;7.18;4.40;;;22.80;80.60;;;;;;10413735;28;20283;-66
2024/04/08 12:32:42;;;;;;;10.30;4.05;;;22.90;79.20;;;;;;10410986;28;20787;-65
2024/04/08 12:37:44;;;;;;;9.43;3.83;;;23.10;80.00;;;;;;10412287;28;20223;-68
2024/04/08 12:42:47;;;;;;;9.43;3.90;;;23.40;79.40;;;;;;10415878;28;21391;-68
2024/04/08 12:47:51;;;;;;;10.70;4.10;;;23.50;77.70;;;;;;10414547;28;20264;-67
2024/04/08 12:52:54;;;;;;;6.35;3.20;;;23.40;77.50;;;;;;10413138;28;20574;-68
2024/04/08 12:57:57;;;;;;;8.00;3.53;;;23.10;78.00;;;;;;10413377;28;20230;-70
2024/04/08 13:03:01;;;;;;;10.20;3.47;;;23.00;78.40;;;;;;10412601;28;20287;-68
2024/04/08 13:08:04;;;;;;;10.05;3.58;;;22.80;77.00;;;;;;10411630;28;20215;-70
2024/04/08 13:13:07;;;;;;;5.57;3.03;;;22.60;77.70;;;;;;10411567;28;20223;-69
2024/04/08 13:18:11;;;;;;;7.07;3.45;;;22.40;77.20;;;;;;10410965;28;20230;-67
2024/04/08 13:23:13;;;;;;;9.18;3.33;;;22.30;77.90;;;;;;10410867;28;20295;-69
2024/04/08 13:28:16;;;;;;;5.60;3.78;;;22.10;78.30;;;;;;10409753;28;21757;-68
2024/04/08 13:33:20;;;;;;;6.13;3.20;;;22.00;77.30;;;;;;10410328;28;20316;-69
2024/04/08 13:38:22;;;;;;;10.40;3.42;;;21.90;78.90;;;;;;10411229;28;21283;-69
2024/04/08 13:43:25;;;;;;;5.70;3.20;;;21.90;80.20;;;;;;10411705;28;20306;-69
2024/04/08 13:48:29;;;;;;;5.88;3.15;;;21.70;78.40;;;;;;10414374;28;20207;-69
2024/04/08 13:53:31;;;;;;;6.85;3.28;;;21.50;78.00;;;;;;10415577;28;20230;-69
2024/04/08 13:58:34;;;;;;;7.63;3.60;;;21.40;78.70;;;;;;10411801;28;20230;-67
2024/04/08 14:03:38;;;;;;;6.20;3.20;;;21.30;79.00;;;;;;10414744;28;20260;-70
2024/04/08 14:08:40;;;;;;;8.32;3.50;;;21.30;79.20;;;;;;10413425;28;20244;-69
2024/04/08 14:13:43;;;;;;;6.20;2.80;;;21.20;79.30;;;;;;10414766;28;21810;-69
2024/04/08 14:18:47;;;;;;;10.00;3.47;;;21.20;79.60;;;;;;10413456;28;20231;-69
2024/04/08 14:23:50;;;;;;;8.18;3.20;;;21.10;79.70;;;;;;10412632;28;20580;-69
2024/04/08 14:28:52;;;;;;;12.55;3.10;;;21.10;80.20;;;;;;10412420;28;20206;-68
2024/04/08 14:33:56;;;;;;;9.15;3.85;;;21.10;80.30;;;;;;10414277;28;20235;-68
2024/04/08 14:38:59;;;;;;;6.90;3.42;;;21.10;79.70;;;;;;10412302;28;20311;-68
2024/04/08 14:44:02;;;;;;;9.52;3.55;;;21.10;79.70;;;;;;10413376;28;20596;-69
2024/04/08 14:49:06;;;;;;;8.35;3.55;;;21.10;79.80;;;;;;10413572;28;20206;-69
2024/04/08 14:54:09;;;;;;;9.52;3.70;;;21.10;79.80;;;;;;10411536;28;20234;-69
2024/04/08 14:59:11;;;;;;;9.70;2.90;;;21.20;79.70;;;;;;10410531;28;20234;-70
2024/04/08 15:04:15;;;;;;;6.63;3.10;;;21.30;79.40;;;;;;10411596;28;20324;-69
2024/04/08 15:09:18;;;;;;;7.20;3.35;;;21.40;78.90;;;;;;10408915;28;20294;-67
2024/04/08 15:15:39;;;;;;;6.93;2.92;;;21.50;79.20;;;;;;11394320;25;20560;-69
2024/04/08 15:20:47;;;;;;;7.68;3.47;;;21.50;79.20;;;;;;11334070;25;20229;-67
2024/04/08 15:25:52;;;;;;;8.73;3.72;;;21.50;79.10;;;;;;11333420;25;20233;-69
2024/04/08 15:31:03;;;;;;;11.05;3.42;;;21.70;79.20;;;;;;11333509;25;20338;-69
2024/04/08 15:36:09;;;;;;;9.60;2.97;;;22.60;77.80;;;;;;11332529;25;20310;-68
2024/04/08 15:41:15;;;;;;;8.52;3.25;;;23.50;76.80;;;;;;11331988;25;20314;-67
2024/04/08 15:46:24;;;;;;;10.88;3.85;;;24.30;76.10;;;;;;11331906;25;20233;-68
2024/04/08 15:51:29;;;;;;;7.07;3.78;;;25.00;75.00;;;;;;11331836;25;20627;-68
2024/04/08 15:56:35;;;;;;;10.57;3.92;;;25.70;73.60;;;;;;11331483;25;20241;-66
2024/04/08 16:01:43;;;;;;;7.07;3.63;;;26.20;72.70;;;;;;11332284;25;20306;-64
2024/04/08 16:06:49;;;;;;;7.57;2.75;;;26.70;71.30;;;;;;11340344;25;20318;-72
2024/04/08 16:11:54;;;;;;;8.07;3.05;;;27.10;70.30;;;;;;11337596;25;20333;-70
2024/04/08 16:17:03;;;;;;;5.63;2.97;;;27.40;69.80;;;;;;11332056;25;20230;-71
2024/04/08 16:22:09;;;;;;;8.98;3.35;;;27.70;68.20;;;;;;11330176;25;20241;-71
2024/04/08 16:27:14;;;;;;;6.30;3.03;;;27.90;67.70;;;;;;11298463;25;20313;-70
2024/04/08 16:32:22;;;;;;;6.75;3.38;;;28.00;66.80;;;;;;11300723;25;20234;-71
2024/04/08 16:37:28;;;;;;;6.50;3.20;;;28.00;66.70;;;;;;11299497;25;20230;-72
2024/04/08 16:42:34;;;;;;;6.65;3.05;;;28.00;66.80;;;;;;11298310;25;21382;-68
2024/04/08 16:47:44;;;;;;;7.57;2.83;;;27.80;67.00;;;;;;11300279;25;20230;-72
2024/04/08 16:52:50;;;;;;;7.97;2.97;;;27.70;65.60;;;;;;11297784;25;20338;-72
2024/04/08 16:57:56;;;;;;;8.23;3.35;;;27.30;65.80;;;;;;11295904;25;20242;-71
2024/04/08 17:03:04;;;;;;;7.55;3.42;;;26.80;66.60;;;;;;11295841;25;20325;-72
2024/04/08 17:08:10;;;;;;;7.93;2.97;;;26.30;67.40;;;;;;11300541;25;20233;-74
2024/04/08 17:13:15;;;;;;;6.63;3.15;;;25.90;67.90;;;;;;11298819;25;20231;-74
2024/04/08 17:18:24;;;;;;;6.63;2.70;;;25.50;68.60;;;;;;11296323;25;22028;-70
2024/04/08 17:23:29;;;;;;;7.55;3.00;;;25.20;67.30;;;;;;11203792;25;20327;-71
2024/04/08 17:28:35;;;;;;;11.43;3.17;;;24.90;68.90;;;;;;11296788;25;21619;-71
2024/04/08 17:33:43;;;;;;;9.27;2.90;;;24.60;69.40;;;;;;11296959;25;20238;-71
2024/04/08 17:38:49;;;;;;;6.90;2.75;;;24.30;69.50;;;;;;11297223;25;20309;-72
2024/04/08 17:43:59;;;;;;;6.35;2.80;;;24.00;69.50;;;;;;11305822;25;22975;-70
2024/04/08 17:49:07;;;;;;;6.93;3.05;;;23.70;69.90;;;;;;11314002;25;20283;-74
2024/04/08 17:54:13;;;;;;;10.27;3.22;;;23.50;70.90;;;;;;11311906;25;20725;-72
2024/04/08 17:59:19;;;;;;;10.90;3.60;;;23.30;71.20;;;;;;11357067;25;20539;-63
2024/04/08 18:04:27;;;;;;;9.57;4.07;;;23.10;71.00;;;;;;11357547;25;20237;-63
2024/04/08 18:09:32;;;;;;;9.02;3.35;;;22.90;71.40;;;;;;11359965;25;20237;-66
2024/04/08 18:14:38;;;;;;;8.05;3.30;;;22.60;71.80;;;;;;11357873;25;20337;-64
2024/04/08 18:19:47;;;;;;;10.07;3.65;;;22.40;72.30;;;;;;11359150;25;20353;-65
2024/04/08 18:24:52;;;;;;;9.10;3.63;;;22.20;72.40;;;;;;11354583;25;20299;-64
2024/04/08 18:29:58;;;;;;;10.35;4.20;;;22.00;72.50;;;;;;11355594;25;20229;-62
2024/04/08 18:35:07;;;;;;;9.68;4.20;;;21.80;72.70;;;;;;11352603;25;20240;-62
2024/04/08 18:40:12;;;;;;;6.85;3.92;;;21.70;73.00;;;;;;11349882;25;20775;-65
2024/04/08 18:45:18;;;;;;;10.75;5.68;;;21.50;73.30;;;;;;11311088;25;20350;-64
2024/04/08 18:50:27;;;;;;;14.13;10.20;;;21.30;73.60;;;;;;11313430;25;20257;-66
2024/04/08 18:55:34;;;;;;;12.10;8.63;;;21.20;74.60;;;;;;11314521;25;20237;-65
2024/04/08 19:00:39;;;;;;;12.57;7.38;;;21.10;73.60;;;;;;11311415;25;20224;-65
2024/04/08 19:05:48;;;;;;;14.65;8.30;;;20.90;73.30;;;;;;11307962;25;20238;-67
2024/04/08 19:10:55;;;;;;;12.85;7.72;;;20.80;73.70;;;;;;11306360;25;20335;-67
2024/04/08 19:16:02;;;;;;;10.27;6.30;;;20.70;73.80;;;;;;11311118;25;20339;-66
2024/04/08 19:21:11;;;;;;;12.85;6.22;;;20.60;74.20;;;;;;11305839;25;20318;-67
2024/04/08 19:26:16;;;;;;;12.50;5.88;;;20.50;74.40;;;;;;11307144;25;20246;-66
2024/04/08 19:31:22;;;;;;;11.07;5.85;;;20.40;74.60;;;;;;11315493;25;20229;-66
2024/04/08 19:36:30;;;;;;;11.20;6.15;;;20.30;74.70;;;;;;11316333;25;20326;-66
2024/04/08 19:41:35;;;;;;;11.88;6.38;;;20.20;75.00;;;;;;11308252;25;22138;-65
2024/04/08 19:46:41;;;;;;;13.35;5.97;;;20.10;75.00;;;;;;11306687;25;20312;-67
2024/04/08 19:51:51;;;;;;;12.80;5.50;;;20.10;74.80;;;;;;11309125;25;20456;-65
2024/04/08 19:56:57;;;;;;;11.10;5.55;;;20.00;75.20;;;;;;11300920;25;20322;-66
2024/04/08 20:02:04;;;;;;;13.80;5.80;;;19.90;75.00;;;;;;11314573;25;20237;-67
2024/04/08 20:07:12;;;;;;;9.10;5.47;;;19.80;75.30;;;;;;11316374;25;20234;-66
2024/04/08 20:12:17;;;;;;;11.55;5.65;;;19.80;75.50;;;;;;11317614;25;20334;-68
2024/04/08 20:17:23;;;;;;;8.68;5.60;;;19.70;75.40;;;;;;11306581;25;20226;-68
2024/04/08 20:22:31;;;;;;;14.20;5.90;;;19.70;76.60;;;;;;11304134;25;22374;-65
2024/04/08 20:27:37;;;;;;;13.32;6.57;;;19.60;76.40;;;;;;11304588;25;20334;-67
2024/04/08 20:32:42;;;;;;;13.77;5.97;;;19.60;77.80;;;;;;11306312;25;20246;-67
2024/04/08 20:37:51;;;;;;;16.70;5.25;;;19.50;77.40;;;;;;11304885;25;20342;-68
2024/04/08 20:42:56;;;;;;;10.02;4.90;;;19.50;77.90;;;;;;11325027;25;20242;-66
2024/04/08 20:48:04;;;;;;;16.63;5.18;;;19.40;78.00;;;;;;11332275;25;20820;-66
2024/04/08 20:53:12;;;;;;;14.20;4.95;;;19.40;77.70;;;;;;11329138;25;20241;-67
2024/04/08 20:58:18;;;;;;;13.23;4.80;;;19.40;77.80;;;;;;11334282;25;21373;-67
2024/04/08 21:03:23;;;;;;;15.38;4.53;;;19.40;77.50;;;;;;11326702;25;20305;-67
2024/04/08 21:08:32;;;;;;;12.75;4.50;;;19.40;77.70;;;;;;11339351;25;20226;-66
2024/04/08 21:13:37;;;;;;;13.95;5.18;;;19.40;78.10;;;;;;11349964;25;20237;-68
2024/04/08 21:18:42;;;;;;;15.75;4.78;;;19.30;77.60;;;;;;11342231;25;22550;-67
2024/04/08 21:23:53;;;;;;;13.95;4.53;;;19.30;76.80;;;;;;11337972;25;20752;-69
2024/04/08 21:28:58;;;;;;;13.35;4.85;;;19.30;77.30;;;;;;11346377;25;20230;-69
2024/04/08 21:34:04;;;;;;;16.52;4.63;;;19.30;77.30;;;;;;11356871;25;20241;-66
2024/04/08 21:39:16;;;;;;;12.98;4.10;;;19.30;77.30;;;;;;11363611;25;20238;-66
2024/04/08 21:44:21;;;;;;;14.38;5.03;;;19.20;77.70;;;;;;11354446;25;20246;-67
2024/04/08 21:49:29;;;;;;;16.63;5.13;;;19.20;77.80;;;;;;11349390;25;20338;-67
2024/04/08 21:54:37;;;;;;;13.20;5.00;;;19.20;77.90;;;;;;11359071;25;20332;-68
2024/04/08 21:59:43;;;;;;;11.02;4.28;;;19.20;78.70;;;;;;11368148;25;20275;-67
2024/04/08 22:04:48;;;;;;;13.48;4.93;;;19.10;78.40;;;;;;11362068;25;20237;-66
2024/04/08 22:09:56;;;;;;;16.77;4.70;;;19.10;79.10;;;;;;11341937;25;20321;-67
2024/04/08 22:15:02;;;;;;;10.45;4.60;;;19.10;78.90;;;;;;11333822;25;20937;-67
2024/04/08 22:20:08;;;;;;;13.65;4.80;;;19.10;78.90;;;;;;11344771;25;20229;-69
2024/04/08 22:25:16;;;;;;;15.85;4.63;;;19.10;79.20;;;;;;11349076;25;20234;-68
2024/04/08 22:30:22;;;;;;;13.93;5.78;;;19.10;79.40;;;;;;11348026;25;20329;-68
2024/04/08 22:35:28;;;;;;;15.52;5.32;;;19.00;79.30;;;;;;11329985;25;20348;-67
2024/04/08 22:40:36;;;;;;;16.75;4.88;;;19.00;79.40;;;;;;11334254;25;20306;-68
2024/04/08 22:45:42;;;;;;;11.35;5.00;;;19.00;79.90;;;;;;11321307;25;20307;-67
2024/04/08 22:50:47;;;;;;;16.13;5.72;;;19.00;79.50;;;;;;11331344;25;20233;-66
2024/04/08 22:55:55;;;;;;;14.00;5.40;;;18.90;79.50;;;;;;11324304;25;20338;-66
2024/04/08 23:01:01;;;;;;;17.25;5.90;;;18.90;79.70;;;;;;11332416;25;20230;-67
2024/04/08 23:06:07;;;;;;;14.60;5.43;;;18.90;79.80;;;;;;11327757;25;20337;-68
2024/04/08 23:11:15;;;;;;;19.10;6.40;;;18.90;79.40;;;;;;11320402;25;20813;-67
2024/04/08 23:16:20;;;;;;;11.95;5.38;;;18.90;79.60;;;;;;11229115;25;20241;-68
2024/04/08 23:21:26;;;;;;;13.95;5.15;;;18.90;79.70;;;;;;11322616;25;20230;-67
2024/04/08 23:26:34;;;;;;;13.38;6.30;;;18.90;80.10;;;;;;11328168;25;20341;-67
2024/04/08 23:31:40;;;;;;;15.80;5.15;;;18.80;80.50;;;;;;11327628;25;20234;-67
2024/04/08 23:36:46;;;;;;;14.88;5.22;;;18.80;80.60;;;;;;11342955;25;20322;-68
2024/04/08 23:41:54;;;;;;;14.25;5.20;;;18.80;80.80;;;;;;11340239;25;20233;-67
2024/04/08 23:47:00;;;;;;;15.77;5.47;;;18.80;80.80;;;;;;11352077;25;20334;-67
2024/04/08 23:52:05;;;;;;;22.25;5.63;;;18.80;80.80;;;;;;11350233;25;20233;-67
2024/04/08 23:57:13;;;;;;;12.85;5.70;;;18.80;80.80;;;;;;11378070;25;20310;-70
